Strona główna
METAR-TAF:

METAR-TAF

Lotnisko :

Port lotniczy Kopenhaga-Kastrup

Kopenhaga, Dania

Szerokość geograficzna: 55-37N, Długość geograficzna: 012-39E, wysokość: 5 m

Aktualna obserwacja pogody

Raport powstał 26 minut temu, godzina 21:50 UTC
Wiatr 16 kt od południowy zachód
Temperatura 7°C
Wilgotność 81%
Ciśnienie 988 hPa
Widzialność 10 km lub więcej

METAR: EKCH 082150Z AUTO 23016KT 9999 SCT042/// 07/04 Q0988 NOSIG

czas: 23:16 (22:16 UTC)

Prognoza

Raport powstał 5 godziny i 14 minut temu, godzina 17:02 UTC
Prognoza ważna od 08 godzina 18 UTC do 09 godzina 18 UTC
Wiatr 18 kt od południowy zachód
Widzialność 10 km lub więcej
Przerywane chmury na wysokości 2000 ft
Przejściowo
od 08 godzina 18 UTC do 09 godzina 18 UTC
Wiatr 20 kt od zachodnio-południowy zachód w porywach dochodzący do 30 kt
Widzialność: 4000 m
Przerywane chmury na wysokości 1200 ft
Rozproszone chmury na wysokości 2000 ft, Cumulonimbus.
przelotny opad deszczu

TAF: EKCH 081702Z 0818/0918 23018KT 9999 BKN020 TEMPO 0818/0918 24020G30KT 4000 SHRA BKN012 SCT020CB

Obserwacja i prognoza pogody dla ponad 4000 lotnisk (raport METAR i TAF).

Dostępne stacje oznaczono żółtymi i czerwonymi punktami na mapie.

Najedź kursorem aby zobaczyć nazwę stacji.

Kliknij aby zobaczyć obserwacje i prognozy pogody.

Aby zmienić mapę: kliknij na zielony przycisk z czarnym krzyżykiem, aby powiększyć; na zielony przycisk z myślnikiem, aby pomniejszyć; na zielone strzałki, aby przejść do map sąsiednich.


METAR-TAF: